sensor_id;sensor_type;location;lat;lon;timestamp;P1;durP1;ratioP1;P2;durP2;ratioP2
26478;SDS011;14163;-26.142;27.992;2023-07-29T00:01:09;28.83;;;23.03;;
26478;SDS011;14163;-26.142;27.992;2023-07-29T00:03:40;28.00;;;23.27;;
26478;SDS011;14163;-26.142;27.992;2023-07-29T00:06:09;26.40;;;23.60;;
26478;SDS011;14163;-26.142;27.992;2023-07-29T00:08:39;33.20;;;23.27;;
26478;SDS011;14163;-26.142;27.992;2023-07-29T00:11:08;29.00;;;22.47;;
26478;SDS011;14163;-26.142;27.992;2023-07-29T00:13:37;26.60;;;23.80;;
26478;SDS011;14163;-26.142;27.992;2023-07-29T00:16:06;27.70;;;23.80;;
26478;SDS011;14163;-26.142;27.992;2023-07-29T00:18:36;28.30;;;23.57;;
26478;SDS011;14163;-26.142;27.992;2023-07-29T00:21:07;29.20;;;23.40;;
26478;SDS011;14163;-26.142;27.992;2023-07-29T00:23:36;30.07;;;24.63;;
26478;SDS011;14163;-26.142;27.992;2023-07-29T00:26:05;26.90;;;23.10;;
26478;SDS011;14163;-26.142;27.992;2023-07-29T00:28:34;27.67;;;24.20;;
26478;SDS011;14163;-26.142;27.992;2023-07-29T00:31:04;26.93;;;23.63;;
26478;SDS011;14163;-26.142;27.992;2023-07-29T00:33:33;25.73;;;23.03;;
26478;SDS011;14163;-26.142;27.992;2023-07-29T00:36:02;28.50;;;22.80;;
26478;SDS011;14163;-26.142;27.992;2023-07-29T00:38:34;32.30;;;23.93;;
26478;SDS011;14163;-26.142;27.992;2023-07-29T00:41:03;25.57;;;22.90;;
26478;SDS011;14163;-26.142;27.992;2023-07-29T00:43:32;31.67;;;23.50;;
26478;SDS011;14163;-26.142;27.992;2023-07-29T00:46:01;29.00;;;21.80;;
26478;SDS011;14163;-26.142;27.992;2023-07-29T00:48:31;25.80;;;23.00;;
26478;SDS011;14163;-26.142;27.992;2023-07-29T00:51:00;28.33;;;23.20;;
26478;SDS011;14163;-26.142;27.992;2023-07-29T00:53:29;24.63;;;22.00;;
26478;SDS011;14163;-26.142;27.992;2023-07-29T00:56:00;26.20;;;21.60;;
26478;SDS011;14163;-26.142;27.992;2023-07-29T00:58:30;28.73;;;23.43;;
26478;SDS011;14163;-26.142;27.992;2023-07-29T01:00:59;32.20;;;21.73;;
26478;SDS011;14163;-26.142;27.992;2023-07-29T01:03:28;25.50;;;22.30;;
26478;SDS011;14163;-26.142;27.992;2023-07-29T01:06:01;25.77;;;22.97;;
26478;SDS011;14163;-26.142;27.992;2023-07-29T01:08:38;29.77;;;21.50;;
26478;SDS011;14163;-26.142;27.992;2023-07-29T01:11:18;26.03;;;22.33;;
26478;SDS011;14163;-26.142;27.992;2023-07-29T01:13:59;23.83;;;21.33;;
26478;SDS011;14163;-26.142;27.992;2023-07-29T01:16:33;24.17;;;21.63;;
26478;SDS011;14163;-26.142;27.992;2023-07-29T01:19:07;30.00;;;21.70;;
26478;SDS011;14163;-26.142;27.992;2023-07-29T01:21:44;28.73;;;21.80;;
26478;SDS011;14163;-26.142;27.992;2023-07-29T01:24:15;28.97;;;22.33;;
26478;SDS011;14163;-26.142;27.992;2023-07-29T01:26:44;27.40;;;22.77;;
26478;SDS011;14163;-26.142;27.992;2023-07-29T01:29:14;27.57;;;22.27;;
26478;SDS011;14163;-26.142;27.992;2023-07-29T01:31:44;27.53;;;21.83;;
26478;SDS011;14163;-26.142;27.992;2023-07-29T01:34:20;23.07;;;20.50;;
26478;SDS011;14163;-26.142;27.992;2023-07-29T01:36:54;24.57;;;20.10;;
26478;SDS011;14163;-26.142;27.992;2023-07-29T01:39:29;24.53;;;20.93;;
26478;SDS011;14163;-26.142;27.992;2023-07-29T01:42:04;24.40;;;20.17;;
26478;SDS011;14163;-26.142;27.992;2023-07-29T01:44:34;24.63;;;21.23;;
26478;SDS011;14163;-26.142;27.992;2023-07-29T01:47:05;25.40;;;19.83;;
26478;SDS011;14163;-26.142;27.992;2023-07-29T01:49:34;27.43;;;20.30;;
26478;SDS011;14163;-26.142;27.992;2023-07-29T01:52:04;26.87;;;20.90;;
26478;SDS011;14163;-26.142;27.992;2023-07-29T01:54:35;24.17;;;19.50;;
26478;SDS011;14163;-26.142;27.992;2023-07-29T01:57:04;22.00;;;19.40;;
26478;SDS011;14163;-26.142;27.992;2023-07-29T01:59:33;27.37;;;20.10;;
26478;SDS011;14163;-26.142;27.992;2023-07-29T04:04:41;14.47;;;12.93;;
26478;SDS011;14163;-26.142;27.992;2023-07-29T04:07:13;13.33;;;11.97;;
26478;SDS011;14163;-26.142;27.992;2023-07-29T04:09:42;16.47;;;12.40;;
26478;SDS011;14163;-26.142;27.992;2023-07-29T04:12:11;14.90;;;12.80;;
26478;SDS011;14163;-26.142;27.992;2023-07-29T04:14:41;15.93;;;12.90;;
26478;SDS011;14163;-26.142;27.992;2023-07-29T04:17:11;14.73;;;12.23;;
26478;SDS011;14163;-26.142;27.992;2023-07-29T04:19:43;16.27;;;12.60;;
26478;SDS011;14163;-26.142;27.992;2023-07-29T04:22:13;16.27;;;12.83;;
26478;SDS011;14163;-26.142;27.992;2023-07-29T04:24:44;14.67;;;13.27;;
26478;SDS011;14163;-26.142;27.992;2023-07-29T04:27:13;17.43;;;12.70;;
26478;SDS011;14163;-26.142;27.992;2023-07-29T04:29:43;17.10;;;12.93;;
26478;SDS011;14163;-26.142;27.992;2023-07-29T04:32:13;15.10;;;13.30;;
26478;SDS011;14163;-26.142;27.992;2023-07-29T04:34:46;15.97;;;13.20;;
26478;SDS011;14163;-26.142;27.992;2023-07-29T04:37:16;17.03;;;13.10;;
26478;SDS011;14163;-26.142;27.992;2023-07-29T04:39:46;15.40;;;13.77;;
26478;SDS011;14163;-26.142;27.992;2023-07-29T04:42:15;20.50;;;13.60;;
26478;SDS011;14163;-26.142;27.992;2023-07-29T04:44:44;14.20;;;12.70;;
26478;SDS011;14163;-26.142;27.992;2023-07-29T04:47:14;14.17;;;12.67;;
26478;SDS011;14163;-26.142;27.992;2023-07-29T04:49:43;15.10;;;13.07;;
26478;SDS011;14163;-26.142;27.992;2023-07-29T04:52:15;14.77;;;12.23;;
26478;SDS011;14163;-26.142;27.992;2023-07-29T04:54:45;15.80;;;12.90;;
26478;SDS011;14163;-26.142;27.992;2023-07-29T04:57:15;15.63;;;12.03;;
26478;SDS011;14163;-26.142;27.992;2023-07-29T04:59:45;16.63;;;12.50;;
26478;SDS011;14163;-26.142;27.992;2023-07-29T05:02:15;14.03;;;12.37;;
26478;SDS011;14163;-26.142;27.992;2023-07-29T05:04:47;15.63;;;12.00;;
26478;SDS011;14163;-26.142;27.992;2023-07-29T05:07:17;16.43;;;11.63;;
26478;SDS011;14163;-26.142;27.992;2023-07-29T05:09:47;13.60;;;11.77;;
26478;SDS011;14163;-26.142;27.992;2023-07-29T05:12:17;15.20;;;12.77;;
26478;SDS011;14163;-26.142;27.992;2023-07-29T05:14:47;13.20;;;11.80;;
26478;SDS011;14163;-26.142;27.992;2023-07-29T05:17:17;13.90;;;11.67;;
26478;SDS011;14163;-26.142;27.992;2023-07-29T05:19:48;15.50;;;12.33;;
26478;SDS011;14163;-26.142;27.992;2023-07-29T05:22:17;13.17;;;11.40;;
26478;SDS011;14163;-26.142;27.992;2023-07-29T05:24:47;15.20;;;11.77;;
26478;SDS011;14163;-26.142;27.992;2023-07-29T05:27:17;12.47;;;11.13;;
26478;SDS011;14163;-26.142;27.992;2023-07-29T05:29:46;14.80;;;12.67;;
26478;SDS011;14163;-26.142;27.992;2023-07-29T05:32:17;15.77;;;13.17;;
26478;SDS011;14163;-26.142;27.992;2023-07-29T05:34:48;13.33;;;11.80;;
26478;SDS011;14163;-26.142;27.992;2023-07-29T05:37:17;17.60;;;11.63;;
26478;SDS011;14163;-26.142;27.992;2023-07-29T05:39:46;13.17;;;11.80;;
26478;SDS011;14163;-26.142;27.992;2023-07-29T05:42:16;13.97;;;12.20;;
26478;SDS011;14163;-26.142;27.992;2023-07-29T05:44:45;16.57;;;11.63;;
26478;SDS011;14163;-26.142;27.992;2023-07-29T05:47:14;13.03;;;11.63;;
26478;SDS011;14163;-26.142;27.992;2023-07-29T05:49:44;13.83;;;11.53;;
26478;SDS011;14163;-26.142;27.992;2023-07-29T05:52:15;13.20;;;11.80;;
26478;SDS011;14163;-26.142;27.992;2023-07-29T05:54:44;17.27;;;11.50;;
26478;SDS011;14163;-26.142;27.992;2023-07-29T05:57:13;14.57;;;10.50;;
26478;SDS011;14163;-26.142;27.992;2023-07-29T05:59:43;9.93;;;8.67;;
26478;SDS011;14163;-26.142;27.992;2023-07-29T06:02:13;11.60;;;10.40;;
26478;SDS011;14163;-26.142;27.992;2023-07-29T06:04:43;10.87;;;8.77;;
26478;SDS011;14163;-26.142;27.992;2023-07-29T06:07:15;12.43;;;9.60;;
26478;SDS011;14163;-26.142;27.992;2023-07-29T06:09:45;13.03;;;9.77;;
26478;SDS011;14163;-26.142;27.992;2023-07-29T06:12:15;10.27;;;8.90;;
26478;SDS011;14163;-26.142;27.992;2023-07-29T06:14:45;11.80;;;10.27;;
26478;SDS011;14163;-26.142;27.992;2023-07-29T06:17:15;12.83;;;9.40;;
26478;SDS011;14163;-26.142;27.992;2023-07-29T06:19:46;13.50;;;10.00;;
26478;SDS011;14163;-26.142;27.992;2023-07-29T06:22:19;10.73;;;9.47;;
26478;SDS011;14163;-26.142;27.992;2023-07-29T06:24:49;13.87;;;9.80;;
26478;SDS011;14163;-26.142;27.992;2023-07-29T06:27:18;11.27;;;9.33;;
26478;SDS011;14163;-26.142;27.992;2023-07-29T06:29:48;13.33;;;10.27;;
26478;SDS011;14163;-26.142;27.992;2023-07-29T06:32:17;10.73;;;9.60;;
26478;SDS011;14163;-26.142;27.992;2023-07-29T06:34:47;12.37;;;10.60;;
26478;SDS011;14163;-26.142;27.992;2023-07-29T06:37:19;10.50;;;9.50;;
26478;SDS011;14163;-26.142;27.992;2023-07-29T06:39:49;15.93;;;10.37;;
26478;SDS011;14163;-26.142;27.992;2023-07-29T06:42:18;12.30;;;9.67;;
26478;SDS011;14163;-26.142;27.992;2023-07-29T06:44:48;10.37;;;9.37;;
26478;SDS011;14163;-26.142;27.992;2023-07-29T06:47:17;10.47;;;9.40;;
26478;SDS011;14163;-26.142;27.992;2023-07-29T06:49:47;12.10;;;9.90;;
26478;SDS011;14163;-26.142;27.992;2023-07-29T06:52:17;12.33;;;9.73;;
26478;SDS011;14163;-26.142;27.992;2023-07-29T06:54:48;14.93;;;10.20;;
26478;SDS011;14163;-26.142;27.992;2023-07-29T06:57:17;12.27;;;10.03;;
26478;SDS011;14163;-26.142;27.992;2023-07-29T06:59:46;14.80;;;10.00;;
26478;SDS011;14163;-26.142;27.992;2023-07-29T07:02:16;12.13;;;9.70;;
26478;SDS011;14163;-26.142;27.992;2023-07-29T07:04:45;15.60;;;10.00;;
26478;SDS011;14163;-26.142;27.992;2023-07-29T07:07:14;13.90;;;10.07;;
26478;SDS011;14163;-26.142;27.992;2023-07-29T07:09:46;12.40;;;9.53;;
26478;SDS011;14163;-26.142;27.992;2023-07-29T07:12:15;14.73;;;10.27;;
26478;SDS011;14163;-26.142;27.992;2023-07-29T07:14:45;16.83;;;9.73;;
26478;SDS011;14163;-26.142;27.992;2023-07-29T07:17:15;11.20;;;10.00;;
26478;SDS011;14163;-26.142;27.992;2023-07-29T07:19:44;10.57;;;9.50;;
26478;SDS011;14163;-26.142;27.992;2023-07-29T07:22:14;17.13;;;10.03;;
26478;SDS011;14163;-26.142;27.992;2023-07-29T07:24:46;12.60;;;11.03;;
26478;SDS011;14163;-26.142;27.992;2023-07-29T07:27:15;13.40;;;11.40;;
26478;SDS011;14163;-26.142;27.992;2023-07-29T07:29:45;14.03;;;10.90;;
26478;SDS011;14163;-26.142;27.992;2023-07-29T07:32:15;15.00;;;11.13;;
26478;SDS011;14163;-26.142;27.992;2023-07-29T07:34:45;15.40;;;10.13;;
26478;SDS011;14163;-26.142;27.992;2023-07-29T07:37:15;19.60;;;10.83;;
26478;SDS011;14163;-26.142;27.992;2023-07-29T07:39:48;13.13;;;10.87;;
26478;SDS011;14163;-26.142;27.992;2023-07-29T07:42:18;12.20;;;10.00;;
26478;SDS011;14163;-26.142;27.992;2023-07-29T07:44:48;12.00;;;10.13;;
26478;SDS011;14163;-26.142;27.992;2023-07-29T07:47:18;15.47;;;11.13;;
26478;SDS011;14163;-26.142;27.992;2023-07-29T07:49:48;14.50;;;12.53;;
26478;SDS011;14163;-26.142;27.992;2023-07-29T07:52:17;15.60;;;11.27;;
26478;SDS011;14163;-26.142;27.992;2023-07-29T07:54:48;14.80;;;10.93;;
26478;SDS011;14163;-26.142;27.992;2023-07-29T07:57:21;14.93;;;11.30;;
26478;SDS011;14163;-26.142;27.992;2023-07-29T07:59:51;11.50;;;10.30;;
26478;SDS011;14163;-26.142;27.992;2023-07-29T08:02:21;10.73;;;9.57;;
26478;SDS011;14163;-26.142;27.992;2023-07-29T08:04:52;12.20;;;10.27;;
26478;SDS011;14163;-26.142;27.992;2023-07-29T08:07:22;14.40;;;11.07;;
26478;SDS011;14163;-26.142;27.992;2023-07-29T08:09:54;15.63;;;11.33;;
26478;SDS011;14163;-26.142;27.992;2023-07-29T08:12:23;14.73;;;11.13;;
26478;SDS011;14163;-26.142;27.992;2023-07-29T08:14:53;13.63;;;11.17;;
26478;SDS011;14163;-26.142;27.992;2023-07-29T08:17:22;18.90;;;13.20;;
26478;SDS011;14163;-26.142;27.992;2023-07-29T08:19:52;17.03;;;10.63;;
26478;SDS011;14163;-26.142;27.992;2023-07-29T08:22:21;13.03;;;11.17;;
26478;SDS011;14163;-26.142;27.992;2023-07-29T08:24:50;13.57;;;12.17;;
26478;SDS011;14163;-26.142;27.992;2023-07-29T08:27:22;15.87;;;10.77;;
26478;SDS011;14163;-26.142;27.992;2023-07-29T08:29:53;16.17;;;11.00;;
26478;SDS011;14163;-26.142;27.992;2023-07-29T08:32:23;74.97;;;43.83;;
26478;SDS011;14163;-26.142;27.992;2023-07-29T08:34:53;39.37;;;27.43;;
26478;SDS011;14163;-26.142;27.992;2023-07-29T08:37:22;16.93;;;11.57;;
26478;SDS011;14163;-26.142;27.992;2023-07-29T08:39:55;17.73;;;11.47;;
26478;SDS011;14163;-26.142;27.992;2023-07-29T08:42:26;14.27;;;12.17;;
26478;SDS011;14163;-26.142;27.992;2023-07-29T08:44:59;14.57;;;10.93;;
26478;SDS011;14163;-26.142;27.992;2023-07-29T08:47:35;13.10;;;10.77;;
26478;SDS011;14163;-26.142;27.992;2023-07-29T08:50:05;13.57;;;12.17;;
26478;SDS011;14163;-26.142;27.992;2023-07-29T08:52:36;16.47;;;11.20;;
26478;SDS011;14163;-26.142;27.992;2023-07-29T08:55:10;17.10;;;10.87;;
26478;SDS011;14163;-26.142;27.992;2023-07-29T08:57:40;12.73;;;9.53;;
26478;SDS011;14163;-26.142;27.992;2023-07-29T09:00:10;11.03;;;9.93;;
26478;SDS011;14163;-26.142;27.992;2023-07-29T09:02:41;13.70;;;10.90;;
26478;SDS011;14163;-26.142;27.992;2023-07-29T09:05:10;13.00;;;9.40;;
26478;SDS011;14163;-26.142;27.992;2023-07-29T09:07:40;15.30;;;8.90;;
26478;SDS011;14163;-26.142;27.992;2023-07-29T09:10:11;12.83;;;10.53;;
26478;SDS011;14163;-26.142;27.992;2023-07-29T09:12:41;10.97;;;8.73;;
26478;SDS011;14163;-26.142;27.992;2023-07-29T09:15:12;10.50;;;9.50;;
26478;SDS011;14163;-26.142;27.992;2023-07-29T09:17:42;11.53;;;10.27;;
26478;SDS011;14163;-26.142;27.992;2023-07-29T09:20:11;12.63;;;9.63;;
26478;SDS011;14163;-26.142;27.992;2023-07-29T09:22:41;15.30;;;9.67;;
26478;SDS011;14163;-26.142;27.992;2023-07-29T09:25:14;11.23;;;10.13;;
26478;SDS011;14163;-26.142;27.992;2023-07-29T09:27:43;23.90;;;12.10;;
26478;SDS011;14163;-26.142;27.992;2023-07-29T09:30:15;14.03;;;12.33;;
26478;SDS011;14163;-26.142;27.992;2023-07-29T09:32:45;13.23;;;11.87;;
26478;SDS011;14163;-26.142;27.992;2023-07-29T09:35:14;11.57;;;10.33;;
26478;SDS011;14163;-26.142;27.992;2023-07-29T09:37:43;12.80;;;9.77;;
26478;SDS011;14163;-26.142;27.992;2023-07-29T09:40:15;14.37;;;10.60;;
26478;SDS011;14163;-26.142;27.992;2023-07-29T09:42:49;12.07;;;10.43;;
26478;SDS011;14163;-26.142;27.992;2023-07-29T09:45:20;11.90;;;10.80;;
26478;SDS011;14163;-26.142;27.992;2023-07-29T09:47:51;12.90;;;11.60;;
26478;SDS011;14163;-26.142;27.992;2023-07-29T09:50:23;12.07;;;10.83;;
26478;SDS011;14163;-26.142;27.992;2023-07-29T09:52:53;12.67;;;11.07;;
26478;SDS011;14163;-26.142;27.992;2023-07-29T09:55:25;12.50;;;11.20;;
26478;SDS011;14163;-26.142;27.992;2023-07-29T09:57:56;13.97;;;11.73;;
26478;SDS011;14163;-26.142;27.992;2023-07-29T10:00:27;12.13;;;10.93;;
26478;SDS011;14163;-26.142;27.992;2023-07-29T10:02:57;13.10;;;11.40;;
26478;SDS011;14163;-26.142;27.992;2023-07-29T12:14:59;9.60;;;8.60;;
26478;SDS011;14163;-26.142;27.992;2023-07-29T12:17:29;12.40;;;11.20;;
26478;SDS011;14163;-26.142;27.992;2023-07-29T12:19:59;11.70;;;10.60;;
26478;SDS011;14163;-26.142;27.992;2023-07-29T12:22:29;11.90;;;10.43;;
26478;SDS011;14163;-26.142;27.992;2023-07-29T12:24:58;11.63;;;10.60;;
26478;SDS011;14163;-26.142;27.992;2023-07-29T12:27:29;10.80;;;9.80;;
26478;SDS011;14163;-26.142;27.992;2023-07-29T12:30:03;11.37;;;10.27;;
26478;SDS011;14163;-26.142;27.992;2023-07-29T12:32:42;11.60;;;10.40;;
26478;SDS011;14163;-26.142;27.992;2023-07-29T12:35:13;13.27;;;11.90;;
26478;SDS011;14163;-26.142;27.992;2023-07-29T12:37:44;15.20;;;11.70;;
26478;SDS011;14163;-26.142;27.992;2023-07-29T12:40:22;13.33;;;11.43;;
26478;SDS011;14163;-26.142;27.992;2023-07-29T12:42:54;13.03;;;11.83;;
26478;SDS011;14163;-26.142;27.992;2023-07-29T12:45:25;13.40;;;10.80;;
26478;SDS011;14163;-26.142;27.992;2023-07-29T12:47:55;14.27;;;10.97;;
26478;SDS011;14163;-26.142;27.992;2023-07-29T12:50:24;15.83;;;14.40;;
26478;SDS011;14163;-26.142;27.992;2023-07-29T12:52:53;14.93;;;13.40;;
26478;SDS011;14163;-26.142;27.992;2023-07-29T12:55:23;13.10;;;12.00;;
26478;SDS011;14163;-26.142;27.992;2023-07-29T12:57:53;14.57;;;13.13;;
26478;SDS011;14163;-26.142;27.992;2023-07-29T13:00:26;15.03;;;13.63;;
26478;SDS011;14163;-26.142;27.992;2023-07-29T13:02:56;15.97;;;14.37;;
26478;SDS011;14163;-26.142;27.992;2023-07-29T13:05:26;16.67;;;15.30;;
26478;SDS011;14163;-26.142;27.992;2023-07-29T13:07:55;22.90;;;20.60;;
26478;SDS011;14163;-26.142;27.992;2023-07-29T13:10:25;23.30;;;21.10;;
26478;SDS011;14163;-26.142;27.992;2023-07-29T13:12:54;20.30;;;18.40;;
26478;SDS011;14163;-26.142;27.992;2023-07-29T13:15:26;21.63;;;19.60;;
26478;SDS011;14163;-26.142;27.992;2023-07-29T13:17:55;22.13;;;20.03;;
26478;SDS011;14163;-26.142;27.992;2023-07-29T13:20:24;18.33;;;16.70;;
26478;SDS011;14163;-26.142;27.992;2023-07-29T13:22:55;19.03;;;15.87;;
26478;SDS011;14163;-26.142;27.992;2023-07-29T13:25:24;22.97;;;18.73;;
26478;SDS011;14163;-26.142;27.992;2023-07-29T13:27:53;23.70;;;19.63;;
26478;SDS011;14163;-26.142;27.992;2023-07-29T13:30:22;24.13;;;22.00;;
26478;SDS011;14163;-26.142;27.992;2023-07-29T13:32:53;23.93;;;21.37;;
26478;SDS011;14163;-26.142;27.992;2023-07-29T13:35:23;21.50;;;19.43;;
26478;SDS011;14163;-26.142;27.992;2023-07-29T13:37:52;23.77;;;21.30;;
26478;SDS011;14163;-26.142;27.992;2023-07-29T13:40:22;24.23;;;21.10;;
26478;SDS011;14163;-26.142;27.992;2023-07-29T13:42:51;24.53;;;22.03;;
26478;SDS011;14163;-26.142;27.992;2023-07-29T13:45:20;25.10;;;22.70;;
26478;SDS011;14163;-26.142;27.992;2023-07-29T13:47:50;25.60;;;23.27;;
26478;SDS011;14163;-26.142;27.992;2023-07-29T13:50:21;28.23;;;25.40;;
26478;SDS011;14163;-26.142;27.992;2023-07-29T13:52:50;27.23;;;24.77;;
26478;SDS011;14163;-26.142;27.992;2023-07-29T13:55:20;26.93;;;24.50;;
26478;SDS011;14163;-26.142;27.992;2023-07-29T13:57:50;27.87;;;25.23;;
26478;SDS011;14163;-26.142;27.992;2023-07-29T14:00:21;26.30;;;23.30;;
26478;SDS011;14163;-26.142;27.992;2023-07-29T14:02:51;24.10;;;21.90;;
26478;SDS011;14163;-26.142;27.992;2023-07-29T14:05:23;22.97;;;20.63;;
26478;SDS011;14163;-26.142;27.992;2023-07-29T14:07:52;21.33;;;19.33;;
26478;SDS011;14163;-26.142;27.992;2023-07-29T14:10:21;19.50;;;17.70;;
26478;SDS011;14163;-26.142;27.992;2023-07-29T14:12:50;17.70;;;15.10;;
26478;SDS011;14163;-26.142;27.992;2023-07-29T14:15:21;16.87;;;15.13;;
26478;SDS011;14163;-26.142;27.992;2023-07-29T14:17:51;17.00;;;15.27;;
26478;SDS011;14163;-26.142;27.992;2023-07-29T14:20:22;18.50;;;13.17;;
26478;SDS011;14163;-26.142;27.992;2023-07-29T14:22:51;16.77;;;13.40;;
26478;SDS011;14163;-26.142;27.992;2023-07-29T14:25:21;15.23;;;12.53;;
26478;SDS011;14163;-26.142;27.992;2023-07-29T14:27:50;14.67;;;13.30;;
26478;SDS011;14163;-26.142;27.992;2023-07-29T14:30:19;15.53;;;14.23;;
26478;SDS011;14163;-26.142;27.992;2023-07-29T14:32:49;17.00;;;15.20;;
26478;SDS011;14163;-26.142;27.992;2023-07-29T14:35:18;17.70;;;15.87;;
26478;SDS011;14163;-26.142;27.992;2023-07-29T14:37:49;17.93;;;16.33;;
26478;SDS011;14163;-26.142;27.992;2023-07-29T14:40:19;22.47;;;18.77;;
26478;SDS011;14163;-26.142;27.992;2023-07-29T14:42:49;20.70;;;17.33;;
26478;SDS011;14163;-26.142;27.992;2023-07-29T14:45:18;22.23;;;19.77;;
26478;SDS011;14163;-26.142;27.992;2023-07-29T14:47:48;17.33;;;15.53;;
26478;SDS011;14163;-26.142;27.992;2023-07-29T14:50:19;19.53;;;17.63;;
26478;SDS011;14163;-26.142;27.992;2023-07-29T14:52:49;20.03;;;17.83;;
26478;SDS011;14163;-26.142;27.992;2023-07-29T14:55:19;24.50;;;21.80;;
26478;SDS011;14163;-26.142;27.992;2023-07-29T14:57:48;26.40;;;21.70;;
26478;SDS011;14163;-26.142;27.992;2023-07-29T15:00:17;32.37;;;28.97;;
26478;SDS011;14163;-26.142;27.992;2023-07-29T15:02:46;24.37;;;21.87;;
26478;SDS011;14163;-26.142;27.992;2023-07-29T15:05:16;27.10;;;24.20;;
26478;SDS011;14163;-26.142;27.992;2023-07-29T15:07:45;19.37;;;17.40;;
26478;SDS011;14163;-26.142;27.992;2023-07-29T15:10:17;18.60;;;16.80;;
26478;SDS011;14163;-26.142;27.992;2023-07-29T15:12:47;18.13;;;16.30;;
26478;SDS011;14163;-26.142;27.992;2023-07-29T15:15:16;19.67;;;16.97;;
26478;SDS011;14163;-26.142;27.992;2023-07-29T15:17:45;18.80;;;17.00;;
26478;SDS011;14163;-26.142;27.992;2023-07-29T15:20:14;18.33;;;16.63;;
26478;SDS011;14163;-26.142;27.992;2023-07-29T15:22:44;20.23;;;18.20;;
26478;SDS011;14163;-26.142;27.992;2023-07-29T15:25:13;21.43;;;19.10;;
26478;SDS011;14163;-26.142;27.992;2023-07-29T15:27:44;22.80;;;19.83;;
26478;SDS011;14163;-26.142;27.992;2023-07-29T15:30:13;21.10;;;18.97;;
26478;SDS011;14163;-26.142;27.992;2023-07-29T15:32:42;21.50;;;19.33;;
26478;SDS011;14163;-26.142;27.992;2023-07-29T15:35:12;21.80;;;19.50;;
26478;SDS011;14163;-26.142;27.992;2023-07-29T15:37:41;24.17;;;21.63;;
26478;SDS011;14163;-26.142;27.992;2023-07-29T15:40:11;22.83;;;20.53;;
26478;SDS011;14163;-26.142;27.992;2023-07-29T15:42:41;23.83;;;21.43;;
26478;SDS011;14163;-26.142;27.992;2023-07-29T15:45:12;23.27;;;20.00;;
26478;SDS011;14163;-26.142;27.992;2023-07-29T15:47:42;22.17;;;19.83;;
26478;SDS011;14163;-26.142;27.992;2023-07-29T15:50:11;23.63;;;19.93;;
26478;SDS011;14163;-26.142;27.992;2023-07-29T15:52:41;24.27;;;21.77;;
26478;SDS011;14163;-26.142;27.992;2023-07-29T15:55:10;22.47;;;19.40;;
26478;SDS011;14163;-26.142;27.992;2023-07-29T15:57:39;43.10;;;38.43;;
26478;SDS011;14163;-26.142;27.992;2023-07-29T16:00:11;21.50;;;19.63;;
26478;SDS011;14163;-26.142;27.992;2023-07-29T16:02:41;20.80;;;18.60;;
26478;SDS011;14163;-26.142;27.992;2023-07-29T16:05:10;18.10;;;16.60;;
26478;SDS011;14163;-26.142;27.992;2023-07-29T16:07:39;20.13;;;18.10;;
26478;SDS011;14163;-26.142;27.992;2023-07-29T16:10:08;22.93;;;17.20;;
26478;SDS011;14163;-26.142;27.992;2023-07-29T16:12:38;18.60;;;15.90;;
26478;SDS011;14163;-26.142;27.992;2023-07-29T16:15:07;18.60;;;16.90;;
26478;SDS011;14163;-26.142;27.992;2023-07-29T16:17:39;20.53;;;18.33;;
26478;SDS011;14163;-26.142;27.992;2023-07-29T16:20:09;20.00;;;17.70;;
26478;SDS011;14163;-26.142;27.992;2023-07-29T16:22:38;19.60;;;17.57;;
26478;SDS011;14163;-26.142;27.992;2023-07-29T16:25:08;20.83;;;18.73;;
26478;SDS011;14163;-26.142;27.992;2023-07-29T16:27:37;22.20;;;19.27;;
26478;SDS011;14163;-26.142;27.992;2023-07-29T16:30:07;32.53;;;27.90;;
26478;SDS011;14163;-26.142;27.992;2023-07-29T16:32:38;23.27;;;20.50;;
26478;SDS011;14163;-26.142;27.992;2023-07-29T16:35:07;19.83;;;17.93;;
26478;SDS011;14163;-26.142;27.992;2023-07-29T16:37:38;24.57;;;21.97;;
26478;SDS011;14163;-26.142;27.992;2023-07-29T16:40:07;23.17;;;19.90;;
26478;SDS011;14163;-26.142;27.992;2023-07-29T16:42:38;23.93;;;20.33;;
26478;SDS011;14163;-26.142;27.992;2023-07-29T16:45:07;23.27;;;20.83;;
26478;SDS011;14163;-26.142;27.992;2023-07-29T16:47:39;20.57;;;18.17;;
26478;SDS011;14163;-26.142;27.992;2023-07-29T16:50:08;21.00;;;18.90;;
26478;SDS011;14163;-26.142;27.992;2023-07-29T16:52:38;20.87;;;18.73;;
26478;SDS011;14163;-26.142;27.992;2023-07-29T16:55:08;27.30;;;21.60;;
26478;SDS011;14163;-26.142;27.992;2023-07-29T16:57:38;23.57;;;21.13;;
26478;SDS011;14163;-26.142;27.992;2023-07-29T17:00:11;29.43;;;23.63;;
26478;SDS011;14163;-26.142;27.992;2023-07-29T17:02:42;24.20;;;20.13;;
26478;SDS011;14163;-26.142;27.992;2023-07-29T17:05:11;23.67;;;20.33;;
26478;SDS011;14163;-26.142;27.992;2023-07-29T17:07:41;21.40;;;19.20;;
26478;SDS011;14163;-26.142;27.992;2023-07-29T17:10:10;25.67;;;19.23;;
26478;SDS011;14163;-26.142;27.992;2023-07-29T17:12:39;19.13;;;17.37;;
26478;SDS011;14163;-26.142;27.992;2023-07-29T17:15:09;20.80;;;18.23;;
26478;SDS011;14163;-26.142;27.992;2023-07-29T17:17:39;20.10;;;18.10;;
26478;SDS011;14163;-26.142;27.992;2023-07-29T17:20:10;19.10;;;17.30;;
26478;SDS011;14163;-26.142;27.992;2023-07-29T17:22:40;20.57;;;17.40;;
26478;SDS011;14163;-26.142;27.992;2023-07-29T17:25:09;18.30;;;16.40;;
26478;SDS011;14163;-26.142;27.992;2023-07-29T17:27:38;17.87;;;16.10;;
26478;SDS011;14163;-26.142;27.992;2023-07-29T17:30:08;22.07;;;15.70;;
26478;SDS011;14163;-26.142;27.992;2023-07-29T17:32:38;19.23;;;17.30;;
26478;SDS011;14163;-26.142;27.992;2023-07-29T17:35:09;20.73;;;18.53;;
26478;SDS011;14163;-26.142;27.992;2023-07-29T17:37:39;21.63;;;19.03;;
26478;SDS011;14163;-26.142;27.992;2023-07-29T17:40:09;22.37;;;20.07;;
26478;SDS011;14163;-26.142;27.992;2023-07-29T17:42:38;23.27;;;20.30;;
26478;SDS011;14163;-26.142;27.992;2023-07-29T17:45:08;24.60;;;20.83;;
26478;SDS011;14163;-26.142;27.992;2023-07-29T17:47:37;23.63;;;20.80;;
26478;SDS011;14163;-26.142;27.992;2023-07-29T17:50:07;23.10;;;20.90;;
26478;SDS011;14163;-26.142;27.992;2023-07-29T17:52:38;22.27;;;18.57;;
26478;SDS011;14163;-26.142;27.992;2023-07-29T17:55:07;18.57;;;16.77;;
26478;SDS011;14163;-26.142;27.992;2023-07-29T17:57:37;20.80;;;16.50;;
26478;SDS011;14163;-26.142;27.992;2023-07-29T18:00:07;30.13;;;17.37;;
26478;SDS011;14163;-26.142;27.992;2023-07-29T20:05:28;4.13;;;3.13;;
26478;SDS011;14163;-26.142;27.992;2023-07-29T20:07:57;11.50;;;3.00;;
26478;SDS011;14163;-26.142;27.992;2023-07-29T20:10:27;7.50;;;2.90;;
26478;SDS011;14163;-26.142;27.992;2023-07-29T20:12:57;14.43;;;3.13;;
26478;SDS011;14163;-26.142;27.992;2023-07-29T20:15:26;3.50;;;3.20;;
26478;SDS011;14163;-26.142;27.992;2023-07-29T20:17:55;10.57;;;3.53;;
26478;SDS011;14163;-26.142;27.992;2023-07-29T20:20:25;5.23;;;2.50;;
26478;SDS011;14163;-26.142;27.992;2023-07-29T20:22:56;4.60;;;2.97;;
26478;SDS011;14163;-26.142;27.992;2023-07-29T20:25:25;7.67;;;3.03;;
26478;SDS011;14163;-26.142;27.992;2023-07-29T20:27:55;5.60;;;2.50;;
26478;SDS011;14163;-26.142;27.992;2023-07-29T20:30:24;6.40;;;2.93;;